Time;durP1;ratioP1;P1;durP2;ratioP2;P2;SDS_P1;SDS_P2;PMS_P1;PMS_P2;Temp;Humidity;BMP_temperature;BMP_pressure;BME280_temperature;BME280_humidity;BME280_pressure;Samples;Min_cycle;Max_cycle;Signal;HPM_P1;HPM_P2
2021/04/03 00:00:16;;;;;;;7.80;4.85;;;7.10;1.00;;;;;;5052457;28;20236;-83
2021/04/03 00:02:42;;;;;;;8.90;5.57;;;7.10;1.00;;;;;;5029734;28;20369;-79
2021/04/03 00:05:11;;;;;;;8.65;5.03;;;7.10;1.00;;;;;;5042097;28;20277;-82
2021/04/03 00:07:38;;;;;;;10.45;5.80;;;7.00;1.00;;;;;;5027220;28;20337;-78
2021/04/03 00:10:06;;;;;;;8.23;5.45;;;7.00;1.00;;;;;;5040647;28;20233;-79
2021/04/03 00:12:33;;;;;;;7.70;4.50;;;6.90;1.00;;;;;;5052908;27;20221;-84
2021/04/03 00:14:59;;;;;;;7.30;5.35;;;6.90;1.00;;;;;;5045460;28;20229;-78
2021/04/03 00:17:25;;;;;;;7.90;4.55;;;6.80;1.00;;;;;;5044265;28;20268;-82
2021/04/03 00:19:55;;;;;;;9.00;5.35;;;6.80;1.00;;;;;;5050120;28;20222;-80
2021/04/03 00:22:22;;;;;;;10.73;4.40;;;6.80;1.00;;;;;;5041188;28;20234;-80
2021/04/03 00:24:49;;;;;;;8.05;5.90;;;6.80;1.00;;;;;;5033332;28;20229;-81
2021/04/03 00:27:16;;;;;;;11.82;4.90;;;6.70;1.00;;;;;;5024112;28;20277;-79
2021/04/03 00:29:43;;;;;;;5.60;4.15;;;6.70;1.00;;;;;;5035362;28;20316;-80
2021/04/03 00:32:10;;;;;;;8.80;5.15;;;6.60;1.00;;;;;;5032543;28;21260;-79
2021/04/03 00:34:36;;;;;;;7.22;4.55;;;6.50;1.00;;;;;;5032598;28;20228;-81
2021/04/03 00:37:03;;;;;;;7.50;4.80;;;6.50;1.00;;;;;;5035735;28;20226;-80
2021/04/03 00:39:30;;;;;;;7.75;4.78;;;6.50;1.00;;;;;;5027961;28;20288;-81
2021/04/03 00:41:57;;;;;;;7.47;4.22;;;6.40;1.00;;;;;;5030000;28;20245;-79
2021/04/03 00:44:23;;;;;;;6.95;4.10;;;6.40;1.00;;;;;;5022158;28;20238;-81
2021/04/03 00:46:49;;;;;;;9.85;4.78;;;6.30;1.00;;;;;;5031289;28;20343;-83
2021/04/03 00:49:15;;;;;;;5.93;4.50;;;6.30;1.00;;;;;;5023119;28;20225;-81
2021/04/03 00:51:42;;;;;;;6.05;4.53;;;6.20;1.00;;;;;;5040643;28;20226;-81
2021/04/03 00:54:09;;;;;;;8.68;4.88;;;6.20;1.00;;;;;;5047978;28;20236;-80
2021/04/03 00:56:36;;;;;;;9.60;4.78;;;6.10;1.00;;;;;;5040185;28;20231;-78
2021/04/03 00:59:04;;;;;;;8.20;5.03;;;6.10;1.00;;;;;;5034439;28;20225;-81
2021/04/03 01:01:31;;;;;;;7.88;4.80;;;6.10;1.00;;;;;;5039007;28;20238;-80
2021/04/03 01:03:58;;;;;;;5.30;4.50;;;6.10;1.00;;;;;;5032428;28;20301;-80
2021/04/03 01:06:24;;;;;;;6.20;4.53;;;6.00;1.00;;;;;;5036227;28;20218;-81
2021/04/03 01:08:50;;;;;;;6.07;4.95;;;6.00;1.00;;;;;;5020138;28;20225;-83
2021/04/03 01:11:17;;;;;;;6.85;4.90;;;5.90;1.00;;;;;;5025818;28;20235;-82
2021/04/03 01:13:59;;;;;;;13.45;5.15;;;5.90;1.00;;;;;;5023932;28;20283;-79
2021/04/03 01:16:32;;;;;;;8.55;5.60;;;5.90;1.00;;;;;;5032201;28;22728;-82
2021/04/03 01:19:14;;;;;;;9.35;5.45;;;5.80;1.00;;;;;;5028547;28;20230;-79
2021/04/03 01:21:57;;;;;;;7.35;4.95;;;5.80;1.00;;;;;;5047653;28;20221;-80
2021/04/03 01:24:36;;;;;;;6.80;4.95;;;5.80;1.00;;;;;;5023001;28;20241;-80
2021/04/03 01:27:20;;;;;;;8.05;4.55;;;5.80;1.00;;;;;;5030637;28;20226;-82
2021/04/03 01:30:00;;;;;;;8.32;6.28;;;5.80;1.00;;;;;;5022349;28;20284;-80
2021/04/03 01:32:36;;;;;;;9.43;5.05;;;5.70;1.00;;;;;;5036680;28;20225;-83
2021/04/03 01:35:06;;;;;;;8.40;5.13;;;5.70;1.00;;;;;;5031658;28;20233;-82
2021/04/03 01:37:37;;;;;;;8.40;4.97;;;5.70;1.00;;;;;;5043751;28;20225;-82
2021/04/03 01:40:05;;;;;;;6.72;5.25;;;5.70;1.00;;;;;;5040755;28;20217;-82
2021/04/03 01:42:35;;;;;;;10.05;4.70;;;5.60;1.00;;;;;;5041115;28;20221;-81
2021/04/03 01:45:05;;;;;;;7.93;5.20;;;5.60;1.00;;;;;;5030309;28;20253;-80
2021/04/03 01:47:34;;;;;;;11.00;5.55;;;5.50;1.00;;;;;;5036511;28;20217;-82
2021/04/03 01:50:02;;;;;;;9.45;5.38;;;5.50;1.00;;;;;;5045499;28;20222;-78
2021/04/03 01:52:32;;;;;;;6.80;4.97;;;5.50;1.00;;;;;;5039963;28;20255;-81
2021/04/03 01:55:03;;;;;;;6.68;4.43;;;5.50;1.00;;;;;;5038906;28;20261;-80
2021/04/03 01:57:31;;;;;;;12.25;5.13;;;5.40;1.00;;;;;;5024041;28;20287;-81
2021/04/03 01:59:59;;;;;;;6.90;4.85;;;5.40;1.00;;;;;;5029400;28;20229;-80
2021/04/03 02:02:26;;;;;;;7.90;5.20;;;5.40;1.00;;;;;;5024325;28;20378;-79
2021/04/03 02:04:54;;;;;;;8.60;4.93;;;5.30;1.00;;;;;;5027464;28;20277;-78
2021/04/03 02:07:23;;;;;;;12.02;5.03;;;5.30;1.00;;;;;;5009804;28;20222;-79
2021/04/03 02:09:51;;;;;;;10.05;4.60;;;5.30;1.00;;;;;;5026991;28;20218;-77
2021/04/03 02:12:19;;;;;;;7.72;4.68;;;5.30;1.00;;;;;;5030295;28;20278;-78
2021/04/03 02:14:48;;;;;;;6.38;4.53;;;5.30;1.00;;;;;;5043377;28;20222;-79
2021/04/03 02:17:16;;;;;;;8.82;5.40;;;5.20;1.00;;;;;;5023839;28;20230;-78
2021/04/03 02:19:43;;;;;;;7.00;4.53;;;5.20;1.00;;;;;;5046173;28;20238;-77
2021/04/03 02:22:10;;;;;;;6.57;4.60;;;5.20;1.00;;;;;;5026387;28;20257;-79
2021/04/03 02:24:37;;;;;;;9.27;5.30;;;5.20;1.00;;;;;;5037527;28;20238;-80
2021/04/03 02:27:05;;;;;;;8.15;5.13;;;5.20;1.00;;;;;;5025361;28;20225;-80
2021/04/03 02:29:31;;;;;;;11.02;5.43;;;5.10;1.00;;;;;;5024326;28;20760;-79
2021/04/03 02:31:58;;;;;;;8.10;5.18;;;5.10;1.00;;;;;;5017676;28;20279;-80
2021/04/03 02:34:24;;;;;;;8.13;5.13;;;5.10;1.00;;;;;;5033255;28;20221;-79
2021/04/03 02:36:51;;;;;;;7.95;5.15;;;5.10;1.00;;;;;;5042423;28;20226;-83
2021/04/03 02:39:19;;;;;;;7.95;5.03;;;5.10;1.00;;;;;;5021600;28;20222;-80
2021/04/03 02:41:54;;;;;;;10.75;5.72;;;5.10;1.00;;;;;;5029066;28;20221;-80
2021/04/03 02:44:26;;;;;;;9.55;5.78;;;5.00;1.00;;;;;;5017093;28;20246;-81
2021/04/03 02:46:58;;;;;;;8.55;5.10;;;5.00;1.00;;;;;;5033155;28;20237;-78
2021/04/03 02:49:28;;;;;;;7.47;5.50;;;5.00;1.00;;;;;;5019492;28;20731;-81
2021/04/03 02:51:57;;;;;;;8.90;4.20;;;5.00;1.00;;;;;;5036632;28;20230;-80
2021/04/03 02:54:26;;;;;;;11.55;5.63;;;4.90;1.00;;;;;;5022171;28;20234;-79
2021/04/03 02:56:54;;;;;;;7.28;5.05;;;4.90;1.00;;;;;;5047467;28;20225;-77
2021/04/03 02:59:23;;;;;;;7.38;4.78;;;4.90;1.00;;;;;;5036520;28;20225;-78
2021/04/03 03:01:54;;;;;;;8.02;5.00;;;4.80;1.00;;;;;;5045659;28;20225;-81
2021/04/03 03:04:22;;;;;;;11.43;6.38;;;4.80;1.00;;;;;;5031661;28;20241;-78
2021/04/03 03:06:49;;;;;;;7.63;5.07;;;4.80;1.00;;;;;;5052440;28;20229;-78
2021/04/03 03:09:19;;;;;;;8.18;5.55;;;4.80;1.00;;;;;;5032266;28;20214;-81
2021/04/03 03:11:47;;;;;;;9.05;5.72;;;4.70;1.00;;;;;;5034588;28;20228;-78
2021/04/03 03:14:15;;;;;;;9.18;5.20;;;4.70;1.00;;;;;;5031480;28;21704;-80
2021/04/03 03:16:43;;;;;;;7.40;6.25;;;4.70;1.00;;;;;;5035843;28;20226;-80
2021/04/03 03:19:13;;;;;;;9.77;4.78;;;4.70;1.00;;;;;;5026642;28;20315;-81
2021/04/03 03:21:40;;;;;;;8.30;5.63;;;4.70;1.00;;;;;;5036103;28;20238;-83
2021/04/03 03:24:08;;;;;;;6.88;4.95;;;4.60;1.00;;;;;;5037465;28;21272;-84
2021/04/03 03:26:37;;;;;;;6.07;5.47;;;4.60;1.00;;;;;;5033946;28;20218;-80
2021/04/03 03:29:05;;;;;;;10.63;6.07;;;4.60;1.00;;;;;;5034341;28;20282;-77
2021/04/03 03:31:33;;;;;;;11.40;6.40;;;4.60;1.00;;;;;;5050560;28;20213;-78
2021/04/03 03:34:00;;;;;;;6.57;4.55;;;4.50;1.00;;;;;;5045837;28;20221;-80
2021/04/03 03:36:28;;;;;;;12.00;6.63;;;4.50;1.00;;;;;;5029158;28;20779;-78
2021/04/03 03:38:55;;;;;;;7.53;5.57;;;4.50;1.00;;;;;;5039240;28;20223;-82
2021/04/03 03:41:25;;;;;;;7.05;4.85;;;4.50;1.00;;;;;;5023744;28;20959;-80
2021/04/03 03:43:53;;;;;;;7.80;5.20;;;4.50;1.00;;;;;;5041862;28;20237;-83
2021/04/03 03:46:19;;;;;;;16.60;6.88;;;4.40;1.00;;;;;;5026197;28;20230;-78
2021/04/03 03:48:46;;;;;;;8.15;6.22;;;4.40;1.00;;;;;;5053809;28;20226;-80
2021/04/03 03:51:13;;;;;;;7.97;5.80;;;4.50;1.00;;;;;;5024308;28;20229;-79
2021/04/03 03:53:39;;;;;;;9.88;5.90;;;4.40;1.00;;;;;;5039811;28;20221;-82
2021/04/03 03:56:06;;;;;;;13.38;5.47;;;4.40;1.00;;;;;;5013805;28;20276;-79
2021/04/03 03:58:32;;;;;;;8.57;5.90;;;4.40;1.00;;;;;;5030870;28;20272;-82
2021/04/03 04:00:59;;;;;;;7.57;5.38;;;4.40;1.00;;;;;;5018920;28;20221;-80
2021/04/03 04:03:26;;;;;;;10.23;5.65;;;4.30;1.00;;;;;;5029611;28;20267;-80
2021/04/03 04:05:52;;;;;;;9.68;5.50;;;4.30;1.00;;;;;;5013290;28;20368;-81
2021/04/03 04:08:19;;;;;;;9.80;6.50;;;4.30;1.00;;;;;;5037183;28;20230;-77
2021/04/03 04:10:45;;;;;;;7.28;5.35;;;4.30;1.00;;;;;;5024550;28;20226;-78
2021/04/03 04:13:12;;;;;;;14.75;6.47;;;4.30;1.00;;;;;;5044868;28;20292;-79
2021/04/03 04:15:38;;;;;;;7.88;6.25;;;4.30;1.00;;;;;;5037832;28;20844;-78
2021/04/03 04:18:05;;;;;;;10.13;5.68;;;4.30;1.00;;;;;;5027366;28;20218;-79
2021/04/03 04:20:32;;;;;;;10.18;6.10;;;4.30;1.00;;;;;;5046143;28;20316;-80
2021/04/03 04:22:59;;;;;;;11.38;5.60;;;4.30;1.00;;;;;;5021109;28;20226;-82
2021/04/03 04:25:26;;;;;;;9.80;4.95;;;4.20;1.00;;;;;;5037907;28;20224;-81
2021/04/03 04:27:52;;;;;;;9.52;5.78;;;4.20;1.00;;;;;;5032833;28;20229;-78
2021/04/03 04:30:20;;;;;;;11.02;6.13;;;4.20;1.00;;;;;;5033799;28;20226;-79
2021/04/03 04:32:46;;;;;;;11.77;5.82;;;4.20;1.00;;;;;;5020230;28;20545;-79
2021/04/03 04:35:14;;;;;;;9.40;6.47;;;4.20;1.00;;;;;;5034382;28;20225;-77
2021/04/03 04:37:41;;;;;;;6.75;5.30;;;4.20;1.00;;;;;;5025864;28;20272;-79
2021/04/03 04:40:09;;;;;;;9.48;6.03;;;4.20;1.00;;;;;;5030031;28;20236;-78
2021/04/03 04:42:38;;;;;;;8.63;5.72;;;4.20;1.00;;;;;;5021147;28;20246;-77
2021/04/03 04:45:06;;;;;;;12.80;5.50;;;4.20;1.00;;;;;;5045920;28;20324;-81
2021/04/03 04:47:32;;;;;;;13.27;6.25;;;4.20;1.00;;;;;;5024871;28;20232;-80
2021/04/03 04:49:58;;;;;;;8.13;6.22;;;4.20;1.00;;;;;;5031113;28;20266;-80
2021/04/03 04:52:25;;;;;;;9.68;6.45;;;4.20;1.00;;;;;;5030627;28;20252;-79
2021/04/03 04:54:52;;;;;;;8.68;5.95;;;4.20;1.00;;;;;;5038385;28;20217;-80
2021/04/03 04:57:18;;;;;;;11.50;6.43;;;4.20;1.00;;;;;;5037700;28;20252;-80
2021/04/03 04:59:45;;;;;;;8.32;4.80;;;4.20;1.00;;;;;;5024909;28;20222;-79
2021/04/03 05:02:11;;;;;;;7.72;5.80;;;4.20;1.00;;;;;;5047043;28;20284;-82
2021/04/03 05:04:38;;;;;;;8.45;5.88;;;4.30;1.00;;;;;;5036516;28;20639;-81
2021/04/03 05:07:04;;;;;;;12.75;5.65;;;4.30;1.00;;;;;;5053943;28;20239;-80
2021/04/03 05:09:32;;;;;;;8.98;5.55;;;4.30;1.00;;;;;;5029155;28;20288;-80
2021/04/03 05:12:00;;;;;;;8.82;5.88;;;4.30;1.00;;;;;;5052320;28;20730;-78
2021/04/03 05:14:27;;;;;;;10.13;5.13;;;4.30;1.00;;;;;;5028713;28;20289;-79
2021/04/03 05:16:54;;;;;;;7.50;5.93;;;4.30;1.00;;;;;;5043190;28;20247;-82
2021/04/03 05:19:20;;;;;;;6.93;5.20;;;4.40;1.00;;;;;;5032416;28;20232;-82
2021/04/03 05:21:46;;;;;;;8.68;4.80;;;4.40;1.00;;;;;;5036822;28;20233;-80
2021/04/03 05:24:13;;;;;;;8.65;5.47;;;4.40;1.00;;;;;;5030881;28;20229;-79
2021/04/03 05:26:40;;;;;;;5.78;4.38;;;4.40;1.00;;;;;;5034679;28;22574;-81
2021/04/03 05:29:09;;;;;;;10.63;5.30;;;4.50;1.00;;;;;;5043292;28;21705;-79
2021/04/03 05:31:35;;;;;;;8.05;5.70;;;4.50;1.00;;;;;;5047117;28;20222;-79
2021/04/03 05:34:01;;;;;;;7.60;4.15;;;4.60;1.00;;;;;;5040844;28;20284;-81
2021/04/03 05:36:28;;;;;;;8.30;5.50;;;4.60;1.00;;;;;;5045687;28;20224;-79
2021/04/03 05:38:54;;;;;;;7.07;5.10;;;4.70;1.00;;;;;;5049925;28;20221;-82
2021/04/03 05:41:23;;;;;;;7.72;6.80;;;4.70;1.00;;;;;;5042818;28;20230;-81
2021/04/03 05:43:52;;;;;;;9.55;7.15;;;4.80;1.00;;;;;;5059807;27;20260;-80
2021/04/03 05:46:20;;;;;;;8.68;6.80;;;4.80;1.00;;;;;;5048819;28;20222;-79
2021/04/03 05:48:46;;;;;;;10.10;6.15;;;4.80;1.00;;;;;;5044890;28;20217;-79
2021/04/03 05:51:14;;;;;;;12.35;6.90;;;4.90;1.00;;;;;;5050463;28;20244;-79
2021/04/03 05:53:44;;;;;;;8.57;5.82;;;4.90;1.00;;;;;;5058170;28;20718;-79
2021/04/03 05:56:13;;;;;;;7.70;5.32;;;5.00;1.00;;;;;;5046065;28;20315;-79
2021/04/03 05:58:40;;;;;;;8.55;6.10;;;5.10;1.00;;;;;;5050373;28;21048;-81
2021/04/03 06:01:08;;;;;;;8.18;5.05;;;5.10;1.00;;;;;;5038136;28;20292;-80
2021/04/03 06:03:35;;;;;;;8.60;4.90;;;5.10;1.00;;;;;;5050288;28;20241;-78
2021/04/03 06:06:03;;;;;;;8.23;5.50;;;5.20;1.00;;;;;;5039123;28;20250;-81
2021/04/03 06:08:30;;;;;;;13.35;6.53;;;5.20;1.00;;;;;;5056961;28;20218;-80
2021/04/03 06:11:14;;;;;;;7.55;5.65;;;5.30;1.00;;;;;;5048667;28;20234;-78
2021/04/03 06:13:42;;;;;;;8.10;5.10;;;5.40;1.00;;;;;;5070060;28;20248;-78
2021/04/03 06:16:27;;;;;;;8.65;5.15;;;5.40;1.00;;;;;;5058744;28;20225;-82
2021/04/03 06:19:21;;;;;;;6.50;4.65;;;5.60;1.00;;;;;;5045365;28;21063;-78
2021/04/03 06:21:54;;;;;;;6.45;4.88;;;5.70;1.00;;;;;;4994954;28;20287;-82
2021/04/03 06:24:23;;;;;;;6.63;4.28;;;5.70;1.00;;;;;;5045375;28;20296;-82
2021/04/03 06:26:58;;;;;;;6.05;4.30;;;5.80;1.00;;;;;;5037809;28;20248;-80
2021/04/03 06:29:31;;;;;;;9.95;4.35;;;5.80;1.00;;;;;;5049051;28;20233;-82
2021/04/03 06:31:59;;;;;;;6.35;4.07;;;5.80;1.00;;;;;;5036960;28;20287;-81
2021/04/03 06:34:30;;;;;;;4.95;3.88;;;5.80;1.00;;;;;;5049036;28;20218;-82
2021/04/03 06:36:57;;;;;;;6.90;4.75;;;5.80;1.00;;;;;;5036736;28;20257;-79
2021/04/03 06:39:24;;;;;;;5.95;4.22;;;5.90;1.00;;;;;;5054612;28;20491;-78
2021/04/03 06:41:51;;;;;;;5.68;4.43;;;6.00;1.00;;;;;;5059232;28;20329;-80
2021/04/03 06:44:18;;;;;;;7.70;3.78;;;6.00;1.00;;;;;;5051087;28;20233;-78
2021/04/03 06:46:46;;;;;;;6.95;4.43;;;6.10;1.00;;;;;;5042835;28;20790;-78
2021/04/03 06:49:14;;;;;;;4.68;3.55;;;6.10;1.00;;;;;;5056194;28;20225;-78
2021/04/03 06:51:41;;;;;;;6.30;3.53;;;6.20;1.00;;;;;;5058003;28;20950;-77
2021/04/03 06:54:09;;;;;;;4.85;3.80;;;6.30;1.00;;;;;;5067549;28;20229;-84
2021/04/03 06:56:37;;;;;;;4.63;3.45;;;6.40;1.00;;;;;;5068977;28;20224;-83
2021/04/03 06:59:05;;;;;;;4.57;3.60;;;6.50;1.00;;;;;;5057926;28;20230;-84
2021/04/03 07:01:41;;;;;;;9.18;3.80;;;6.60;1.00;;;;;;5060227;28;20222;-82
2021/04/03 07:04:10;;;;;;;5.20;3.10;;;6.70;1.00;;;;;;5048068;28;20250;-84
2021/04/03 07:06:37;;;;;;;5.55;3.10;;;6.70;1.00;;;;;;5057907;28;20257;-85
2021/04/03 07:09:05;;;;;;;9.98;4.28;;;6.80;1.00;;;;;;5051645;28;20237;-81
2021/04/03 07:11:32;;;;;;;6.60;3.60;;;6.90;1.00;;;;;;5054997;28;20241;-84
2021/04/03 07:14:00;;;;;;;5.10;3.35;;;7.10;1.00;;;;;;5054828;28;20280;-84
2021/04/03 07:16:28;;;;;;;4.97;2.90;;;7.20;1.00;;;;;;5068518;28;20292;-84
2021/04/03 07:18:56;;;;;;;4.38;3.08;;;7.20;1.00;;;;;;5061075;28;20217;-84
2021/04/03 07:21:23;;;;;;;4.15;2.70;;;7.30;1.00;;;;;;5067729;28;20275;-83
2021/04/03 07:23:52;;;;;;;6.03;2.58;;;7.40;1.00;;;;;;5056196;28;20303;-85
2021/04/03 07:26:18;;;;;;;4.32;2.63;;;7.50;1.00;;;;;;5071060;28;20229;-84
2021/04/03 07:28:45;;;;;;;7.82;3.58;;;7.60;1.00;;;;;;5071732;28;20213;-84
2021/04/03 07:31:39;;;;;;;4.00;2.15;;;7.80;1.00;;;;;;5083683;28;20228;-85
2021/04/03 07:34:06;;;;;;;3.88;2.40;;;8.00;1.00;;;;;;5047692;27;20226;-82
2021/04/03 07:36:37;;;;;;;3.22;2.40;;;8.10;1.00;;;;;;5069282;27;20281;-80
2021/04/03 07:39:06;;;;;;;5.53;2.22;;;8.30;1.00;;;;;;5054462;28;20201;-79
2021/04/03 07:41:38;;;;;;;2.30;2.10;;;8.40;1.00;;;;;;5057009;28;20210;-79
2021/04/03 07:44:14;;;;;;;3.60;1.98;;;8.40;1.00;;;;;;5074512;27;20229;-80
2021/04/03 07:46:46;;;;;;;3.70;1.90;;;8.40;1.00;;;;;;5091659;27;20211;-84
2021/04/03 07:49:31;;;;;;;2.33;2.00;;;8.50;1.00;;;;;;5082964;28;20314;-85
2021/04/03 07:51:58;;;;;;;1.75;1.50;;;8.70;1.00;;;;;;5074982;27;20213;-84
2021/04/03 07:54:32;;;;;;;2.63;1.70;;;8.80;1.00;;;;;;5067249;27;20237;-84
2021/04/03 07:57:06;;;;;;;3.30;2.10;;;9.00;1.00;;;;;;5060903;28;20222;-84
2021/04/03 07:59:53;;;;;;;2.97;1.45;;;9.10;1.00;;;;;;5058084;28;20215;-85
2021/04/03 08:02:27;;;;;;;3.95;2.10;;;9.30;1.00;;;;;;5058866;27;20238;-79
2021/04/03 08:04:56;;;;;;;7.80;2.85;;;9.30;1.00;;;;;;5045753;27;20241;-79
2021/04/03 08:07:23;;;;;;;4.10;1.50;;;9.40;1.00;;;;;;5059078;28;20233;-86
2021/04/03 08:09:52;;;;;;;2.50;1.65;;;9.40;1.00;;;;;;5063507;27;20225;-84
2021/04/03 08:12:29;;;;;;;3.85;2.50;;;9.40;1.00;;;;;;5042872;28;20226;-80
2021/04/03 08:14:57;;;;;;;2.60;1.42;;;9.40;1.00;;;;;;5041485;28;20241;-80
2021/04/03 08:17:25;;;;;;;2.75;1.42;;;9.40;1.00;;;;;;5040139;28;20235;-79
2021/04/03 08:19:56;;;;;;;3.80;1.90;;;9.50;1.00;;;;;;5040952;28;20215;-80
2021/04/03 08:22:23;;;;;;;9.20;5.40;;;9.60;1.00;;;;;;5031521;28;20265;-85
2021/04/03 08:24:58;;;;;;;5.43;2.90;;;9.70;1.00;;;;;;5040188;28;20245;-78
2021/04/03 08:27:36;;;;;;;6.35;2.10;;;9.80;1.00;;;;;;5028275;28;20506;-80
2021/04/03 08:30:21;;;;;;;4.95;1.67;;;10.00;1.00;;;;;;5039803;28;20262;-78
2021/04/03 08:33:08;;;;;;;3.70;2.45;;;10.20;1.00;;;;;;5053995;28;20214;-86
2021/04/03 08:35:37;;;;;;;1.90;1.10;;;10.40;1.00;;;;;;5057247;28;20219;-79
2021/04/03 08:38:08;;;;;;;3.83;1.20;;;10.40;1.00;;;;;;5033384;28;20278;-79
2021/04/03 08:40:36;;;;;;;3.17;2.10;;;10.50;1.00;;;;;;5054359;28;20718;-84
2021/04/03 08:43:05;;;;;;;3.70;1.80;;;10.70;1.00;;;;;;5044193;28;20236;-82
2021/04/03 08:45:36;;;;;;;2.95;2.03;;;10.70;1.00;;;;;;5050365;28;20318;-78
2021/04/03 08:48:08;;;;;;;2.90;1.63;;;10.80;1.00;;;;;;5040682;28;20816;-80
2021/04/03 08:50:34;;;;;;;4.53;2.00;;;10.90;1.00;;;;;;5029360;28;20494;-83
2021/04/03 08:53:03;;;;;;;3.23;2.00;;;10.90;1.00;;;;;;5051910;28;20229;-82
2021/04/03 08:55:33;;;;;;;4.28;2.00;;;10.80;1.00;;;;;;5034370;28;20445;-82
2021/04/03 08:58:03;;;;;;;2.80;1.60;;;10.90;1.00;;;;;;5047555;28;20222;-82
2021/04/03 09:00:32;;;;;;;2.97;1.70;;;11.10;1.00;;;;;;5025015;28;20420;-78
2021/04/03 09:02:59;;;;;;;6.97;3.13;;;11.40;1.00;;;;;;5034036;28;20460;-81
2021/04/03 09:05:27;;;;;;;3.67;1.67;;;11.80;1.00;;;;;;5024266;28;20437;-83
2021/04/03 09:07:55;;;;;;;5.50;2.30;;;12.00;1.00;;;;;;5034330;28;20585;-82
2021/04/03 09:10:24;;;;;;;4.67;1.50;;;12.00;1.00;;;;;;5034277;28;20440;-79
2021/04/03 09:12:53;;;;;;;3.07;1.47;;;12.10;1.00;;;;;;5055560;28;20431;-80
2021/04/03 09:15:31;;;;;;;4.13;2.07;;;12.40;1.00;;;;;;5043799;28;20464;-83
2021/04/03 09:18:04;;;;;;;2.70;1.43;;;12.60;1.00;;;;;;5032306;28;20479;-79
2021/04/03 09:20:32;;;;;;;2.70;2.00;;;12.80;1.00;;;;;;5051726;28;20401;-82
2021/04/03 09:23:06;;;;;;;5.00;1.43;;;13.10;1.00;;;;;;5046060;28;20503;-81
2021/04/03 09:25:34;;;;;;;3.03;1.47;;;13.70;1.00;;;;;;5066348;28;21322;-82
2021/04/03 09:28:03;;;;;;;2.13;1.47;;;13.70;1.00;;;;;;5030821;28;20486;-83
2021/04/03 09:30:37;;;;;;;3.70;1.80;;;13.40;1.00;;;;;;5053031;28;20448;-85
2021/04/03 09:33:14;;;;;;;6.37;1.47;;;14.00;1.00;;;;;;5041868;28;21376;-81
2021/04/03 09:35:41;;;;;;;4.40;3.10;;;14.10;1.00;;;;;;5036256;28;20471;-81
2021/04/03 09:38:08;;;;;;;2.50;1.80;;;13.90;1.00;;;;;;5018406;28;20590;-81
2021/04/03 09:40:36;;;;;;;3.93;1.53;;;13.60;1.00;;;;;;5042890;28;20803;-81
2021/04/03 09:43:03;;;;;;;3.67;1.90;;;13.10;1.00;;;;;;5021877;28;20449;-80
2021/04/03 09:45:30;;;;;;;11.60;3.40;;;14.10;1.00;;;;;;5043842;28;20482;-80
2021/04/03 09:47:58;;;;;;;1.63;1.20;;;15.20;1.00;;;;;;5025487;28;21015;-82
2021/04/03 09:50:24;;;;;;;5.13;2.00;;;15.60;1.00;;;;;;5045221;28;21074;-81
2021/04/03 09:52:52;;;;;;;2.67;2.00;;;15.70;1.00;;;;;;5025690;28;20488;-82
2021/04/03 09:55:18;;;;;;;2.37;1.93;;;16.00;1.00;;;;;;5045092;28;20457;-81
2021/04/03 09:57:45;;;;;;;3.33;1.37;;;16.30;1.00;;;;;;5026996;28;20495;-82
2021/04/03 10:00:13;;;;;;;9.00;3.20;;;17.70;1.00;;;;;;5044953;28;20451;-82
2021/04/03 10:02:39;;;;;;;1.93;1.73;;;18.10;1.00;;;;;;5034486;28;20498;-81
2021/04/03 10:05:07;;;;;;;4.20;2.33;;;18.20;1.00;;;;;;5050666;28;20471;-82
2021/04/03 10:07:34;;;;;;;4.27;2.53;;;19.70;1.00;;;;;;5050840;28;20603;-84
2021/04/03 10:10:01;;;;;;;2.00;1.30;;;21.30;1.00;;;;;;5052038;28;20433;-80
2021/04/03 10:12:28;;;;;;;5.53;1.30;;;22.30;1.00;;;;;;5057671;28;20423;-82
2021/04/03 10:14:54;;;;;;;3.20;2.03;;;21.10;1.00;;;;;;5042469;28;21072;-80
2021/04/03 10:17:20;;;;;;;2.20;1.20;;;19.40;1.00;;;;;;5046225;28;20416;-83
2021/04/03 10:19:47;;;;;;;4.73;3.30;;;17.70;1.00;;;;;;5034451;28;20410;-82
2021/04/03 10:22:16;;;;;;;1.77;1.37;;;16.40;1.00;;;;;;5038335;28;20489;-80
2021/04/03 10:24:42;;;;;;;8.63;2.00;;;15.60;1.00;;;;;;5028830;28;20493;-80
2021/04/03 10:27:09;;;;;;;2.07;1.13;;;15.20;1.00;;;;;;5037776;28;20440;-81
2021/04/03 10:29:38;;;;;;;2.70;2.30;;;14.90;1.00;;;;;;5022089;28;20464;-83
2021/04/03 10:32:06;;;;;;;3.33;1.73;;;15.20;1.00;;;;;;5038522;28;20561;-81
2021/04/03 10:34:33;;;;;;;2.73;1.57;;;15.50;1.00;;;;;;5013734;28;20999;-79
2021/04/03 10:36:59;;;;;;;9.47;2.17;;;15.30;1.00;;;;;;5031417;28;20448;-77
2021/04/03 10:39:26;;;;;;;3.30;2.13;;;15.10;1.00;;;;;;5018331;28;20600;-77
2021/04/03 10:41:52;;;;;;;1.87;1.63;;;16.50;1.00;;;;;;5022053;28;20483;-79
2021/04/03 10:44:18;;;;;;;3.47;1.30;;;18.60;1.00;;;;;;5017351;28;21043;-80
2021/04/03 10:46:45;;;;;;;5.43;2.33;;;18.60;1.00;;;;;;5032201;28;20463;-79
2021/04/03 10:49:11;;;;;;;4.83;3.07;;;17.90;1.00;;;;;;5031010;28;20463;-76
2021/04/03 10:51:37;;;;;;;8.53;2.27;;;17.50;1.00;;;;;;5027502;28;20447;-78
2021/04/03 10:54:04;;;;;;;1.67;1.43;;;17.10;1.00;;;;;;5035625;28;20419;-77
2021/04/03 10:56:31;;;;;;;2.00;1.50;;;16.80;1.00;;;;;;5013643;28;20472;-77
2021/04/03 10:58:57;;;;;;;2.07;1.20;;;16.50;1.00;;;;;;5030432;28;20561;-80
2021/04/03 11:01:23;;;;;;;2.37;1.77;;;16.30;1.00;;;;;;5023787;28;20555;-79
2021/04/03 11:03:50;;;;;;;2.07;1.30;;;16.00;1.00;;;;;;5043282;28;20417;-78
2021/04/03 11:06:16;;;;;;;2.53;1.43;;;15.80;1.00;;;;;;5033232;28;20422;-79
2021/04/03 11:08:42;;;;;;;2.20;1.60;;;16.00;1.00;;;;;;5065000;28;20552;-80
2021/04/03 11:11:09;;;;;;;3.53;1.50;;;16.20;1.00;;;;;;5024480;28;20455;-79
2021/04/03 11:13:38;;;;;;;1.90;1.03;;;15.80;1.00;;;;;;5047831;28;20460;-81
2021/04/03 11:16:05;;;;;;;1.47;0.77;;;15.00;1.00;;;;;;5036667;28;20477;-80
2021/04/03 11:18:31;;;;;;;2.23;1.23;;;14.70;1.00;;;;;;5068540;28;20444;-80
2021/04/03 11:20:57;;;;;;;1.77;1.30;;;14.40;1.00;;;;;;5046291;28;20417;-78
2021/04/03 11:23:23;;;;;;;2.53;1.20;;;14.20;1.00;;;;;;5045801;28;20834;-81
2021/04/03 11:25:50;;;;;;;2.93;1.03;;;13.80;1.00;;;;;;5043740;28;20480;-78
2021/04/03 11:28:16;;;;;;;1.80;0.90;;;13.40;1.00;;;;;;5051043;28;20409;-84
2021/04/03 11:30:47;;;;;;;4.70;1.83;;;13.10;1.00;;;;;;5053377;28;20540;-81
2021/04/03 11:33:13;;;;;;;2.90;1.77;;;12.90;1.00;;;;;;5031855;28;20449;-79
2021/04/03 11:35:39;;;;;;;3.37;1.83;;;12.80;1.00;;;;;;5030760;28;20452;-79
2021/04/03 11:38:06;;;;;;;4.33;1.60;;;12.60;1.00;;;;;;5022936;28;21158;-75
2021/04/03 11:40:32;;;;;;;3.87;1.70;;;12.50;1.00;;;;;;5031180;28;20456;-80
2021/04/03 11:42:58;;;;;;;2.67;1.87;;;12.60;1.00;;;;;;5018014;28;20561;-78
2021/04/03 11:45:25;;;;;;;1.90;1.70;;;12.70;1.00;;;;;;5040097;28;20451;-79
2021/04/03 11:47:53;;;;;;;1.80;1.23;;;12.90;1.00;;;;;;5019936;28;20459;-79
2021/04/03 11:50:20;;;;;;;4.03;1.60;;;13.00;1.00;;;;;;5032500;28;20542;-76
2021/04/03 11:52:47;;;;;;;1.63;1.40;;;13.20;1.00;;;;;;5050730;28;20471;-81
2021/04/03 11:55:15;;;;;;;4.00;2.60;;;13.50;1.00;;;;;;5043758;28;20947;-81
2021/04/03 11:57:42;;;;;;;3.77;3.33;;;14.10;1.00;;;;;;5035062;28;21340;-83
2021/04/03 12:00:10;;;;;;;4.00;3.60;;;14.30;1.00;;;;;;5037958;28;20465;-77
2021/04/03 12:02:36;;;;;;;2.03;1.80;;;14.10;1.00;;;;;;5013632;28;20465;-78
2021/04/03 12:05:06;;;;;;;3.43;1.87;;;13.80;1.00;;;;;;5027266;28;20497;-77
2021/04/03 12:07:35;;;;;;;7.70;4.10;;;13.50;1.00;;;;;;5015142;28;21237;-78
2021/04/03 12:10:02;;;;;;;1.80;1.20;;;13.40;1.00;;;;;;5031613;28;20477;-77
2021/04/03 12:12:29;;;;;;;3.30;2.47;;;13.30;1.00;;;;;;5028566;28;20476;-77
2021/04/03 12:14:55;;;;;;;2.03;1.50;;;13.40;1.00;;;;;;5031735;28;20523;-76
2021/04/03 12:17:21;;;;;;;3.77;2.63;;;13.60;1.00;;;;;;5033903;28;20413;-76
2021/04/03 12:19:47;;;;;;;2.73;1.23;;;13.90;1.00;;;;;;5034964;28;20426;-77
2021/04/03 12:22:14;;;;;;;1.70;1.30;;;14.60;1.00;;;;;;5040337;28;20462;-78
2021/04/03 12:24:41;;;;;;;2.67;1.30;;;16.60;1.00;;;;;;5019646;28;20463;-76
2021/04/03 12:27:07;;;;;;;5.83;2.20;;;19.10;1.00;;;;;;5035593;28;20429;-75
2021/04/03 12:29:34;;;;;;;2.30;1.43;;;20.50;1.00;;;;;;5019594;28;20469;-76
2021/04/03 12:32:00;;;;;;;2.40;1.20;;;22.10;1.00;;;;;;5027905;28;20536;-76
2021/04/03 12:34:26;;;;;;;2.53;1.10;;;22.80;1.00;;;;;;5008671;28;20464;-79
2021/04/03 12:36:52;;;;;;;4.43;1.40;;;23.70;1.00;;;;;;5024329;28;20444;-77
2021/04/03 12:39:19;;;;;;;2.03;1.40;;;24.90;1.00;;;;;;5004756;28;20447;-77
2021/04/03 12:41:46;;;;;;;2.93;1.07;;;26.10;1.00;;;;;;5035289;28;20855;-76
2021/04/03 12:44:12;;;;;;;5.10;1.10;;;26.20;1.00;;;;;;5004773;28;20573;-78
2021/04/03 12:46:39;;;;;;;1.60;1.40;;;27.00;1.00;;;;;;5024411;28;20472;-78
2021/04/03 12:49:05;;;;;;;1.57;0.97;;;26.90;1.00;;;;;;5007804;28;20458;-76
2021/04/03 12:51:32;;;;;;;4.60;1.70;;;27.80;1.00;;;;;;5023301;28;20456;-76
2021/04/03 12:53:59;;;;;;;2.23;1.07;;;27.40;1.00;;;;;;5024392;28;20442;-76
2021/04/03 12:56:26;;;;;;;2.70;1.50;;;25.60;1.00;;;;;;5013811;28;20997;-74
2021/04/03 12:58:52;;;;;;;3.83;1.17;;;23.40;1.00;;;;;;5018988;28;20503;-74
2021/04/03 13:01:18;;;;;;;1.80;0.83;;;21.80;1.00;;;;;;4999207;28;20501;-74
2021/04/03 13:03:45;;;;;;;4.20;1.60;;;20.60;1.00;;;;;;5017626;28;20513;-72
2021/04/03 13:06:11;;;;;;;4.00;1.40;;;21.00;1.00;;;;;;4997356;28;20871;-73
2021/04/03 13:08:37;;;;;;;4.40;1.10;;;22.20;1.00;;;;;;5039417;28;20896;-72